Time;durP1;ratioP1;P1;durP2;ratioP2;P2;SDS_P1;SDS_P2;PMS_P1;PMS_P2;Temp;Humidity;BMP_temperature;BMP_pressure;BME280_temperature;BME280_humidity;BME280_pressure;Samples;Min_cycle;Max_cycle;Signal;HPM_P1;HPM_P2
2023/03/05 00:01:04;;;;;;;5.70;1.60;;;4.70;99.90;;;;;;4968328;28;20428;-73
2023/03/05 00:03:30;;;;;;;6.93;0.88;;;4.70;99.90;;;;;;4968064;28;20034;-73
2023/03/05 00:05:56;;;;;;;6.43;0.93;;;4.70;99.90;;;;;;4967559;28;20031;-73
2023/03/05 00:08:22;;;;;;;7.00;1.35;;;4.70;99.90;;;;;;4965292;28;20042;-74
2023/03/05 00:10:55;;;;;;;3.78;1.02;;;4.70;99.90;;;;;;4966686;28;20414;-73
2023/03/05 00:13:21;;;;;;;8.32;1.27;;;4.70;99.90;;;;;;4968910;28;20058;-73
2023/03/05 00:15:46;;;;;;;12.80;2.05;;;4.70;99.90;;;;;;4968107;28;20566;-73
2023/03/05 00:18:12;;;;;;;9.18;1.83;;;4.70;99.90;;;;;;4968691;28;20035;-73
2023/03/05 00:20:37;;;;;;;12.13;3.78;;;4.70;99.90;;;;;;4967909;28;20118;-74
2023/03/05 00:23:03;;;;;;;11.60;3.45;;;4.70;99.90;;;;;;4967771;28;20039;-73
2023/03/05 00:25:28;;;;;;;8.40;2.25;;;4.70;99.90;;;;;;4968537;28;20073;-72
2023/03/05 00:27:54;;;;;;;8.95;3.10;;;4.70;99.90;;;;;;4963334;28;20514;-73
2023/03/05 00:30:20;;;;;;;6.45;1.77;;;4.70;99.90;;;;;;4967523;28;20035;-74
2023/03/05 00:32:45;;;;;;;7.90;2.15;;;4.70;99.90;;;;;;4968386;28;20555;-73
2023/03/05 00:35:11;;;;;;;10.40;1.73;;;4.70;99.90;;;;;;4968313;28;20039;-74
2023/03/05 00:37:37;;;;;;;2.95;1.25;;;4.70;99.90;;;;;;4968169;28;20118;-74
2023/03/05 00:40:03;;;;;;;5.22;0.70;;;4.70;99.90;;;;;;4965769;28;20488;-73
2023/03/05 00:42:29;;;;;;;6.38;1.25;;;4.60;99.90;;;;;;4966706;28;20275;-73
2023/03/05 00:44:54;;;;;;;9.65;1.95;;;4.60;99.90;;;;;;4967990;28;20023;-73
2023/03/05 00:47:20;;;;;;;8.30;1.67;;;4.60;99.90;;;;;;4966779;28;20539;-73
2023/03/05 00:49:45;;;;;;;5.80;1.48;;;4.60;99.90;;;;;;4967776;28;20042;-73
2023/03/05 00:52:11;;;;;;;6.00;1.58;;;4.60;99.90;;;;;;4967476;28;20035;-73
2023/03/05 00:54:36;;;;;;;5.72;1.20;;;4.60;99.90;;;;;;4966092;28;20047;-73
2023/03/05 00:57:04;;;;;;;9.13;1.33;;;4.60;99.90;;;;;;4966126;28;20057;-73
2023/03/05 00:59:30;;;;;;;5.28;1.23;;;4.60;99.90;;;;;;4971464;28;20105;-74
2023/03/05 01:01:55;;;;;;;3.20;0.88;;;4.60;99.90;;;;;;4965426;28;20019;-73
2023/03/05 01:04:21;;;;;;;3.92;1.20;;;4.60;99.90;;;;;;4967321;28;20031;-73
2023/03/05 01:06:47;;;;;;;7.05;0.95;;;4.60;99.90;;;;;;4967003;28;20599;-73
2023/03/05 01:09:12;;;;;;;8.75;1.92;;;4.60;99.90;;;;;;4968485;28;20038;-73
2023/03/05 01:11:39;;;;;;;6.72;1.45;;;4.60;99.90;;;;;;4966998;28;20038;-73
2023/03/05 01:14:04;;;;;;;9.25;1.75;;;4.60;99.90;;;;;;4967069;28;20037;-73
2023/03/05 01:16:30;;;;;;;8.15;1.00;;;4.60;99.90;;;;;;4968327;28;20129;-73
2023/03/05 01:18:55;;;;;;;5.68;0.93;;;4.60;99.90;;;;;;4974144;28;20026;-73
2023/03/05 01:21:21;;;;;;;5.70;1.05;;;4.60;99.90;;;;;;4966803;28;20038;-73
2023/03/05 01:23:47;;;;;;;6.82;0.90;;;4.60;99.90;;;;;;4965843;28;20081;-73
2023/03/05 01:26:13;;;;;;;5.25;1.20;;;4.60;99.90;;;;;;4970732;28;20035;-73
2023/03/05 01:28:39;;;;;;;6.88;1.10;;;4.60;99.90;;;;;;4967026;28;20027;-72
2023/03/05 01:31:08;;;;;;;7.63;1.30;;;4.60;99.90;;;;;;4966878;28;20031;-72
2023/03/05 01:33:34;;;;;;;8.40;1.17;;;4.60;99.90;;;;;;4967003;28;20495;-73
2023/03/05 01:35:59;;;;;;;5.72;1.10;;;4.50;99.90;;;;;;4970625;28;20059;-73
2023/03/05 01:38:25;;;;;;;9.68;1.77;;;4.50;99.90;;;;;;4966480;28;20053;-73
2023/03/05 01:40:51;;;;;;;7.80;1.30;;;4.40;99.90;;;;;;4970966;28;20035;-73
2023/03/05 01:43:28;;;;;;;9.15;1.45;;;4.30;99.90;;;;;;4967491;28;20038;-74
2023/03/05 01:46:12;;;;;;;6.28;0.75;;;4.30;99.90;;;;;;4968306;28;20126;-74
2023/03/05 01:48:42;;;;;;;5.68;1.10;;;4.30;99.90;;;;;;4971044;28;20034;-72
2023/03/05 01:51:08;;;;;;;4.38;2.13;;;4.30;99.90;;;;;;4975451;28;20030;-73
2023/03/05 01:53:34;;;;;;;4.53;0.75;;;4.30;99.90;;;;;;4972053;28;20125;-73
2023/03/05 01:56:00;;;;;;;7.50;1.17;;;4.30;99.90;;;;;;4975283;28;20035;-73
2023/03/05 01:58:26;;;;;;;6.78;0.80;;;4.30;99.90;;;;;;4969411;28;20172;-73
2023/03/05 02:00:54;;;;;;;9.55;0.98;;;4.30;99.90;;;;;;4970224;28;20035;-73
2023/03/05 02:03:21;;;;;;;5.72;0.60;;;4.30;99.90;;;;;;4968462;28;20039;-74
2023/03/05 02:05:47;;;;;;;9.07;1.35;;;4.30;99.90;;;;;;4973836;28;20105;-74
2023/03/05 02:08:15;;;;;;;5.35;1.27;;;4.30;99.90;;;;;;4970782;28;20480;-73
2023/03/05 02:10:44;;;;;;;2.95;1.17;;;4.40;99.90;;;;;;4971595;28;20037;-77
2023/03/05 02:13:13;;;;;;;5.40;0.65;;;4.40;99.90;;;;;;4969089;28;20042;-73
2023/03/05 02:15:40;;;;;;;6.10;1.30;;;4.40;99.90;;;;;;4968685;28;20066;-73
2023/03/05 02:18:07;;;;;;;6.93;1.02;;;4.40;99.90;;;;;;4973515;28;20442;-73
2023/03/05 02:20:52;;;;;;;1.90;0.50;;;4.40;99.90;;;;;;4977991;28;20094;-73
2023/03/05 02:23:21;;;;;;;3.60;0.73;;;4.40;99.90;;;;;;4977061;28;20043;-73
2023/03/05 02:25:47;;;;;;;4.40;0.45;;;4.40;99.90;;;;;;4975292;28;20041;-72
2023/03/05 02:28:39;;;;;;;4.35;0.50;;;4.40;99.90;;;;;;4973782;28;20038;-73
2023/03/05 02:31:12;;;;;;;5.95;1.13;;;4.50;99.90;;;;;;4958094;28;20053;-73
2023/03/05 02:33:38;;;;;;;5.60;1.50;;;4.40;99.90;;;;;;4974295;28;20105;-73
2023/03/05 02:36:04;;;;;;;9.05;1.08;;;4.40;99.90;;;;;;4969655;28;20035;-73
2023/03/05 02:38:30;;;;;;;3.65;0.75;;;4.40;99.90;;;;;;4969639;28;20035;-73
2023/03/05 02:40:55;;;;;;;2.78;0.55;;;4.40;99.90;;;;;;4970064;28;20038;-73
2023/03/05 02:43:21;;;;;;;6.10;1.48;;;4.40;99.90;;;;;;4967922;28;20041;-73
2023/03/05 02:45:46;;;;;;;8.85;1.08;;;4.30;99.90;;;;;;4972628;28;20038;-73
2023/03/05 02:48:12;;;;;;;1.83;0.47;;;4.30;99.90;;;;;;4971044;28;20042;-73
2023/03/05 02:50:38;;;;;;;2.58;0.50;;;4.30;99.90;;;;;;4970186;28;20040;-73
2023/03/05 02:53:05;;;;;;;4.57;0.50;;;4.30;99.90;;;;;;4970505;28;20113;-73
2023/03/05 02:55:31;;;;;;;0.68;0.22;;;4.30;99.90;;;;;;4968264;28;20039;-73
2023/03/05 02:57:56;;;;;;;3.33;0.68;;;4.30;99.90;;;;;;4972272;28;20035;-73
2023/03/05 03:00:22;;;;;;;8.30;0.80;;;4.30;99.90;;;;;;4969706;28;20123;-73
2023/03/05 03:02:48;;;;;;;6.60;0.68;;;4.20;99.90;;;;;;4971949;28;20070;-73
2023/03/05 03:05:14;;;;;;;4.82;0.60;;;4.20;99.90;;;;;;4969968;28;20097;-72
2023/03/05 03:07:45;;;;;;;2.78;0.70;;;4.20;99.90;;;;;;4970263;28;20042;-72
2023/03/05 03:10:11;;;;;;;5.03;0.50;;;4.20;99.90;;;;;;4973271;28;20118;-73
2023/03/05 03:12:42;;;;;;;7.45;0.80;;;4.20;99.90;;;;;;4968582;28;20422;-73
2023/03/05 03:15:10;;;;;;;2.70;0.50;;;4.20;99.90;;;;;;4976844;28;20034;-74
2023/03/05 03:17:37;;;;;;;5.00;0.85;;;4.10;99.90;;;;;;4971314;28;20411;-73
2023/03/05 03:20:08;;;;;;;3.72;0.90;;;4.10;99.90;;;;;;4968851;28;20039;-73
2023/03/05 03:22:35;;;;;;;4.50;0.93;;;4.00;99.90;;;;;;4971443;28;20042;-73
2023/03/05 03:25:01;;;;;;;8.00;1.92;;;4.00;99.90;;;;;;4955138;28;20037;-73
2023/03/05 03:27:27;;;;;;;6.63;0.63;;;3.90;99.90;;;;;;4971527;28;20067;-73
2023/03/05 03:29:52;;;;;;;3.85;0.77;;;3.90;99.90;;;;;;4968724;28;20110;-73
2023/03/05 03:32:18;;;;;;;2.67;0.63;;;3.80;99.90;;;;;;4951527;28;20530;-73
2023/03/05 03:34:43;;;;;;;3.20;0.60;;;3.80;99.90;;;;;;4970507;28;20134;-73
2023/03/05 03:37:09;;;;;;;4.43;1.02;;;3.70;99.90;;;;;;4969334;28;20034;-72
2023/03/05 03:39:35;;;;;;;1.90;0.82;;;3.70;99.90;;;;;;4969144;28;20414;-72
2023/03/05 03:42:01;;;;;;;4.88;0.98;;;3.60;99.90;;;;;;4971885;28;20046;-73
2023/03/05 03:44:26;;;;;;;4.82;0.63;;;3.50;99.90;;;;;;4972104;28;20574;-73
2023/03/05 03:46:53;;;;;;;6.95;1.05;;;3.50;99.90;;;;;;4967740;28;20118;-73
2023/03/05 03:49:21;;;;;;;6.18;0.80;;;3.50;99.90;;;;;;4968194;28;20392;-74
2023/03/05 03:51:48;;;;;;;3.47;0.80;;;3.50;99.90;;;;;;4968655;28;20110;-73
2023/03/05 03:54:15;;;;;;;14.00;1.33;;;3.50;99.90;;;;;;4952991;28;20041;-74
2023/03/05 03:56:41;;;;;;;6.93;2.03;;;3.50;99.90;;;;;;4971985;28;20066;-73
2023/03/05 03:59:07;;;;;;;4.75;0.60;;;3.50;99.90;;;;;;4972007;28;20057;-72
2023/03/05 04:01:33;;;;;;;7.25;0.93;;;3.60;99.90;;;;;;4956232;28;20579;-73
2023/03/05 04:03:58;;;;;;;3.22;1.02;;;3.60;99.90;;;;;;4974874;28;20038;-73
2023/03/05 04:06:24;;;;;;;9.23;0.65;;;3.60;99.90;;;;;;4971211;28;20075;-73
2023/03/05 04:08:50;;;;;;;3.83;0.80;;;3.70;99.90;;;;;;4973518;28;20039;-73
2023/03/05 04:11:18;;;;;;;2.92;0.80;;;3.70;99.90;;;;;;4971564;28;20043;-73
2023/03/05 04:13:44;;;;;;;2.85;0.80;;;3.70;99.90;;;;;;4970655;28;20163;-72
2023/03/05 04:16:10;;;;;;;8.75;0.80;;;3.70;99.90;;;;;;4968676;28;20046;-73
2023/03/05 04:18:36;;;;;;;3.60;1.05;;;3.80;99.90;;;;;;4970989;28;20041;-72
2023/03/05 04:21:01;;;;;;;6.40;0.60;;;3.80;99.90;;;;;;4952368;28;20034;-73
2023/03/05 04:23:27;;;;;;;3.85;0.75;;;3.80;99.90;;;;;;4963766;28;20073;-73
2023/03/05 04:25:53;;;;;;;2.40;0.45;;;3.80;99.90;;;;;;4971595;28;20529;-72
2023/03/05 04:28:18;;;;;;;3.15;0.50;;;3.80;99.90;;;;;;4969212;28;20068;-73
2023/03/05 04:30:44;;;;;;;6.10;0.65;;;3.90;99.90;;;;;;4968608;28;20123;-73
2023/03/05 04:33:09;;;;;;;3.83;0.93;;;3.80;99.90;;;;;;4968949;28;20373;-73
2023/03/05 04:35:36;;;;;;;4.65;0.70;;;3.90;99.90;;;;;;4968018;28;20038;-74
2023/03/05 04:38:01;;;;;;;3.40;0.80;;;3.90;99.90;;;;;;4969589;28;20042;-72
2023/03/05 04:40:27;;;;;;;2.28;0.60;;;3.90;99.90;;;;;;4968308;28;20376;-72
2023/03/05 04:42:52;;;;;;;4.50;0.55;;;3.90;99.90;;;;;;4972987;28;20053;-73
2023/03/05 04:45:18;;;;;;;4.43;0.95;;;3.90;99.90;;;;;;4965692;28;20047;-75
2023/03/05 04:47:44;;;;;;;6.22;0.80;;;3.90;99.90;;;;;;4967607;28;20094;-73
2023/03/05 04:50:10;;;;;;;0.93;0.50;;;3.90;99.90;;;;;;4968347;28;20034;-72
2023/03/05 04:52:41;;;;;;;1.40;0.50;;;3.90;99.90;;;;;;4963776;28;20066;-73
2023/03/05 04:55:08;;;;;;;2.65;0.68;;;3.90;99.90;;;;;;4968198;28;20038;-72
2023/03/05 04:57:34;;;;;;;7.07;0.60;;;3.90;99.90;;;;;;4966347;28;20035;-73
2023/03/05 05:00:00;;;;;;;8.35;0.77;;;3.90;99.90;;;;;;4958842;28;20045;-73
2023/03/05 05:02:26;;;;;;;6.20;1.65;;;3.90;99.90;;;;;;4966679;28;20035;-73
2023/03/05 05:04:52;;;;;;;4.10;0.60;;;3.90;99.90;;;;;;4966536;28;20026;-73
2023/03/05 05:07:18;;;;;;;3.08;0.40;;;4.00;99.90;;;;;;4968892;28;20043;-73
2023/03/05 05:09:44;;;;;;;2.05;0.60;;;4.00;99.90;;;;;;4970363;28;20894;-73
2023/03/05 05:12:12;;;;;;;9.02;1.48;;;4.00;99.90;;;;;;4969348;28;20058;-73
2023/03/05 05:14:38;;;;;;;5.43;0.70;;;4.00;99.90;;;;;;4985643;28;20128;-72
2023/03/05 05:17:04;;;;;;;2.47;0.35;;;4.00;99.90;;;;;;4986405;28;20463;-74
2023/03/05 05:19:33;;;;;;;2.67;0.30;;;4.00;99.90;;;;;;4968831;28;20058;-73
2023/03/05 05:21:59;;;;;;;2.67;0.85;;;4.00;99.90;;;;;;4986424;28;20759;-72
2023/03/05 05:24:24;;;;;;;5.20;0.40;;;4.00;99.90;;;;;;4975077;28;20092;-73
2023/03/05 05:26:52;;;;;;;0.93;0.13;;;4.00;99.90;;;;;;4986278;28;20483;-72
2023/03/05 05:29:18;;;;;;;8.15;1.13;;;4.00;99.90;;;;;;4968754;28;20031;-75
2023/03/05 05:31:43;;;;;;;9.80;0.28;;;4.00;99.90;;;;;;4986376;28;20031;-73
2023/03/05 05:34:12;;;;;;;1.90;0.30;;;4.00;99.90;;;;;;4987179;28;20030;-73
2023/03/05 05:36:37;;;;;;;2.13;0.20;;;4.00;99.90;;;;;;4985772;28;20061;-72
2023/03/05 05:39:04;;;;;;;2.03;0.30;;;3.90;99.90;;;;;;4986719;28;20058;-73
2023/03/05 05:41:29;;;;;;;8.05;0.40;;;3.90;99.90;;;;;;4986407;28;20101;-73
2023/03/05 05:43:55;;;;;;;3.10;0.43;;;3.80;99.90;;;;;;4996878;28;20395;-73
2023/03/05 05:46:21;;;;;;;1.48;0.30;;;3.80;99.90;;;;;;4976201;28;20046;-73
2023/03/05 05:48:47;;;;;;;0.90;0.20;;;3.70;99.90;;;;;;4963058;28;20081;-72
2023/03/05 05:51:16;;;;;;;2.13;0.22;;;3.70;99.90;;;;;;4970991;28;20042;-73
2023/03/05 05:53:43;;;;;;;5.82;0.80;;;3.60;99.90;;;;;;4966870;28;20039;-72
2023/03/05 05:56:10;;;;;;;2.75;0.35;;;3.60;99.90;;;;;;4967170;28;20118;-73
2023/03/05 05:58:37;;;;;;;1.42;0.35;;;3.60;99.90;;;;;;4971636;28;20034;-72
2023/03/05 06:01:11;;;;;;;3.88;0.40;;;3.60;99.90;;;;;;4968275;28;20173;-71
2023/03/05 06:03:37;;;;;;;2.88;0.40;;;3.50;99.90;;;;;;4983356;28;20084;-73
2023/03/05 06:06:06;;;;;;;0.65;0.30;;;3.50;99.90;;;;;;4975610;28;20554;-73
2023/03/05 06:08:32;;;;;;;1.17;0.28;;;3.50;99.90;;;;;;4978273;28;20512;-73
2023/03/05 06:11:01;;;;;;;2.55;0.30;;;3.40;99.90;;;;;;4970221;28;20118;-75
2023/03/05 06:13:26;;;;;;;3.45;0.30;;;3.40;99.90;;;;;;4967230;28;20093;-72
2023/03/05 06:15:57;;;;;;;3.20;0.82;;;3.40;99.90;;;;;;4968592;28;20185;-73
2023/03/05 06:18:22;;;;;;;;;;;3.40;99.90;;;;;;4967813;28;20046;-72
2023/03/05 06:21:00;;;;;;;0.90;0.28;;;3.30;99.90;;;;;;4968541;28;19918;-73
2023/03/05 06:23:26;;;;;;;3.25;0.50;;;3.30;99.90;;;;;;4968182;28;20580;-73
2023/03/05 06:25:52;;;;;;;3.95;0.50;;;3.30;99.90;;;;;;4967536;28;20054;-73
2023/03/05 06:28:18;;;;;;;3.72;0.98;;;3.30;99.90;;;;;;4970771;28;20046;-72
2023/03/05 06:30:43;;;;;;;4.95;0.50;;;3.30;99.90;;;;;;4968732;28;20088;-73
2023/03/05 06:33:09;;;;;;;0.63;0.28;;;3.30;99.90;;;;;;4970047;28;20114;-73
2023/03/05 06:35:38;;;;;;;1.05;0.70;;;3.30;99.90;;;;;;4968693;28;20037;-71
2023/03/05 06:38:03;;;;;;;2.38;0.82;;;3.30;99.90;;;;;;4983349;28;20049;-71
2023/03/05 06:40:29;;;;;;;2.90;0.60;;;3.30;99.90;;;;;;4975333;28;20043;-71
2023/03/05 06:42:54;;;;;;;3.78;0.30;;;3.30;99.90;;;;;;4984398;28;20038;-71
2023/03/05 06:45:20;;;;;;;1.23;0.32;;;3.30;99.90;;;;;;4982457;28;20157;-72
2023/03/05 06:47:45;;;;;;;2.03;0.40;;;3.40;99.90;;;;;;4987865;28;20026;-71
2023/03/05 06:50:12;;;;;;;6.07;0.52;;;3.40;99.90;;;;;;4975315;28;20026;-72
2023/03/05 06:52:39;;;;;;;0.95;0.20;;;3.50;99.90;;;;;;4974895;28;20035;-72
2023/03/05 06:55:06;;;;;;;3.13;0.85;;;3.50;99.90;;;;;;4976386;28;20042;-72
2023/03/05 06:57:31;;;;;;;2.08;0.28;;;3.50;99.90;;;;;;4980240;28;20031;-72
2023/03/05 06:59:57;;;;;;;3.90;1.27;;;3.60;99.90;;;;;;4979067;28;20396;-72
2023/03/05 07:02:23;;;;;;;3.17;0.82;;;3.60;99.90;;;;;;4975176;28;20046;-73
2023/03/05 07:04:48;;;;;;;3.65;0.77;;;3.70;99.90;;;;;;4972190;28;20041;-72
2023/03/05 07:07:14;;;;;;;1.20;0.50;;;3.70;99.90;;;;;;4976257;28;20034;-72
2023/03/05 07:09:42;;;;;;;0.43;0.25;;;3.70;99.90;;;;;;4969907;28;20062;-71
2023/03/05 07:12:11;;;;;;;2.08;0.73;;;3.80;99.90;;;;;;4971152;28;20089;-72
2023/03/05 07:14:37;;;;;;;2.15;0.40;;;3.80;99.90;;;;;;4972374;28;20460;-71
2023/03/05 07:17:06;;;;;;;1.88;0.52;;;3.90;99.90;;;;;;4976507;28;20116;-72
2023/03/05 07:19:32;;;;;;;3.22;1.23;;;4.00;99.90;;;;;;4977520;28;20034;-73
2023/03/05 07:21:57;;;;;;;6.22;0.80;;;4.00;99.90;;;;;;4977841;28;20045;-73
2023/03/05 07:24:28;;;;;;;2.90;0.50;;;4.00;99.90;;;;;;4976609;28;20110;-73
2023/03/05 07:26:56;;;;;;;4.07;0.50;;;4.00;99.90;;;;;;4974041;28;20035;-72
2023/03/05 07:29:22;;;;;;;1.98;0.52;;;4.00;99.90;;;;;;4983875;28;20045;-72
2023/03/05 07:31:48;;;;;;;5.30;1.83;;;4.10;99.90;;;;;;4967508;28;20031;-73
2023/03/05 07:34:14;;;;;;;0.95;0.30;;;4.10;99.90;;;;;;4975399;28;20546;-71
2023/03/05 07:36:41;;;;;;;5.40;1.38;;;4.10;99.90;;;;;;4967295;28;20094;-71
2023/03/05 07:39:07;;;;;;;6.10;0.65;;;4.10;99.90;;;;;;4965301;28;20031;-74
2023/03/05 07:41:35;;;;;;;2.50;0.77;;;4.10;99.90;;;;;;4967120;28;20365;-71
2023/03/05 07:44:01;;;;;;;3.80;0.95;;;4.00;99.90;;;;;;4982636;28;20035;-71
2023/03/05 07:46:29;;;;;;;3.10;1.00;;;4.00;99.90;;;;;;4973308;28;20522;-75
2023/03/05 07:48:55;;;;;;;4.28;0.80;;;4.00;99.90;;;;;;4977273;28;20427;-73
2023/03/05 07:51:22;;;;;;;2.58;0.73;;;4.00;99.90;;;;;;4973476;28;20098;-73
2023/03/05 07:53:49;;;;;;;4.30;0.95;;;4.10;99.90;;;;;;4970619;28;20456;-72
2023/03/05 07:56:41;;;;;;;3.58;1.02;;;4.10;99.90;;;;;;4972564;28;20031;-73
2023/03/05 07:59:10;;;;;;;7.50;1.10;;;4.10;99.90;;;;;;4974036;28;20092;-71
2023/03/05 08:01:36;;;;;;;2.15;0.80;;;4.20;99.90;;;;;;4972774;28;20058;-74
2023/03/05 08:04:03;;;;;;;2.22;0.65;;;4.30;99.90;;;;;;4976963;28;20030;-73
2023/03/05 08:06:29;;;;;;;3.75;0.90;;;4.40;99.90;;;;;;4987945;28;20033;-73
2023/03/05 08:08:55;;;;;;;2.97;0.55;;;4.60;99.90;;;;;;4978367;28;20066;-72
2023/03/05 08:11:21;;;;;;;1.42;0.35;;;4.60;99.90;;;;;;4972999;28;20112;-72
2023/03/05 08:13:47;;;;;;;1.48;0.60;;;4.70;99.90;;;;;;4983941;28;20082;-74
2023/03/05 08:16:15;;;;;;;4.00;1.15;;;4.80;99.90;;;;;;4972067;28;20075;-72
2023/03/05 08:18:41;;;;;;;0.95;0.45;;;4.90;99.90;;;;;;4972064;28;20049;-73
2023/03/05 08:21:18;;;;;;;2.22;0.70;;;5.00;99.90;;;;;;4965458;28;20123;-73
2023/03/05 08:23:44;;;;;;;5.93;0.50;;;5.00;99.90;;;;;;4965056;28;20034;-76
2023/03/05 08:26:12;;;;;;;1.27;0.63;;;5.00;99.90;;;;;;4969529;28;20403;-72
2023/03/05 08:28:37;;;;;;;2.78;0.40;;;5.10;99.90;;;;;;4970179;28;20117;-73
2023/03/05 08:31:08;;;;;;;4.57;1.10;;;5.20;99.90;;;;;;4968844;28;20162;-74
2023/03/05 08:33:34;;;;;;;3.92;0.50;;;5.20;99.90;;;;;;4967725;28;20819;-72
2023/03/05 08:36:03;;;;;;;1.23;0.40;;;5.30;99.90;;;;;;4967890;28;20101;-72
2023/03/05 08:38:28;;;;;;;2.25;0.77;;;5.40;99.90;;;;;;4967686;28;20180;-72
2023/03/05 08:40:54;;;;;;;1.30;0.45;;;5.50;99.90;;;;;;4967442;28;20562;-72
2023/03/05 08:43:20;;;;;;;1.95;0.35;;;5.60;99.90;;;;;;4969201;28;20058;-74
2023/03/05 08:45:46;;;;;;;3.03;0.32;;;5.60;99.90;;;;;;4967700;28;20169;-74
2023/03/05 08:48:12;;;;;;;2.10;0.20;;;5.70;99.90;;;;;;4967327;28;20035;-73
2023/03/05 08:50:38;;;;;;;0.80;0.28;;;5.70;99.90;;;;;;4967500;28;20118;-72
2023/03/05 08:53:03;;;;;;;1.48;0.30;;;5.70;99.90;;;;;;4965864;28;20224;-73
2023/03/05 08:55:29;;;;;;;2.55;0.40;;;5.70;99.90;;;;;;4967394;28;20042;-74
2023/03/05 08:57:54;;;;;;;4.07;0.85;;;5.70;99.90;;;;;;4968297;28;20026;-73
2023/03/05 09:00:20;;;;;;;1.80;0.57;;;5.60;99.90;;;;;;4966077;28;20041;-75
2023/03/05 09:02:46;;;;;;;1.23;0.30;;;5.60;99.90;;;;;;4968887;28;20042;-73
2023/03/05 09:05:12;;;;;;;3.55;0.30;;;5.70;99.90;;;;;;4967130;28;20808;-74
2023/03/05 09:07:38;;;;;;;2.53;0.85;;;5.60;99.90;;;;;;4967619;28;20043;-72
2023/03/05 09:10:05;;;;;;;1.48;0.20;;;5.60;99.90;;;;;;4965587;28;20027;-72
2023/03/05 09:12:30;;;;;;;4.28;0.30;;;5.60;99.90;;;;;;4967027;28;20043;-73
2023/03/05 09:14:56;;;;;;;1.77;0.20;;;5.60;99.90;;;;;;4967165;28;20506;-72
2023/03/05 09:17:22;;;;;;;0.98;0.50;;;5.50;99.90;;;;;;4968107;28;20113;-73
2023/03/05 09:19:48;;;;;;;1.13;0.20;;;5.50;99.90;;;;;;4965584;28;20205;-74
2023/03/05 09:22:14;;;;;;;0.35;0.10;;;5.50;99.90;;;;;;4966714;28;20018;-73
2023/03/05 09:24:40;;;;;;;1.67;0.60;;;5.50;99.90;;;;;;4967822;28;20034;-73
2023/03/05 09:27:05;;;;;;;1.52;0.30;;;5.50;99.90;;;;;;4969865;28;20523;-73
2023/03/05 09:29:31;;;;;;;2.25;0.57;;;5.60;99.90;;;;;;4965857;28;20085;-72
2023/03/05 09:31:56;;;;;;;0.30;0.13;;;5.60;99.90;;;;;;4965517;28;20523;-72
2023/03/05 09:34:22;;;;;;;2.58;0.30;;;5.70;99.90;;;;;;4967071;28;20031;-73
2023/03/05 09:36:48;;;;;;;1.05;0.35;;;5.70;99.90;;;;;;4963988;28;20035;-73
2023/03/05 09:39:15;;;;;;;4.47;0.35;;;5.90;99.90;;;;;;4965570;28;20058;-73
2023/03/05 09:42:04;;;;;;;1.20;0.30;;;6.00;99.90;;;;;;4965184;28;20035;-72
2023/03/05 09:44:59;;;;;;;3.17;0.30;;;6.10;99.90;;;;;;4966452;28;20073;-72
2023/03/05 09:47:40;;;;;;;3.75;0.82;;;6.30;99.90;;;;;;4963644;28;20447;-73
2023/03/05 09:50:35;;;;;;;1.85;0.30;;;6.40;99.90;;;;;;4965447;28;20108;-72
2023/03/05 09:53:14;;;;;;;1.60;0.17;;;6.40;99.90;;;;;;4964630;28;20042;-72
2023/03/05 09:55:47;;;;;;;0.40;0.10;;;6.60;99.90;;;;;;4967303;28;20149;-74
2023/03/05 09:58:29;;;;;;;1.15;0.28;;;6.70;99.90;;;;;;4966797;28;20132;-72
2023/03/05 10:01:01;;;;;;;1.55;0.40;;;6.90;99.90;;;;;;4967339;28;20034;-73
2023/03/05 10:03:52;;;;;;;1.58;0.40;;;7.20;99.90;;;;;;4970188;28;20035;-73
2023/03/05 10:06:40;;;;;;;1.00;0.40;;;7.40;99.90;;;;;;4947131;28;20050;-73
2023/03/05 10:09:30;;;;;;;0.70;0.30;;;7.50;99.90;;;;;;4973803;28;20045;-74
2023/03/05 10:12:06;;;;;;;0.63;0.20;;;7.70;99.90;;;;;;4992545;28;20030;-72
2023/03/05 10:14:39;;;;;;;0.80;0.22;;;7.70;99.90;;;;;;4989709;28;20034;-73
2023/03/05 10:17:07;;;;;;;1.02;0.20;;;7.70;99.90;;;;;;4989663;28;20042;-72
2023/03/05 10:20:06;;;;;;;4.75;0.63;;;7.60;99.90;;;;;;4989501;28;20441;-73
2023/03/05 10:22:44;;;;;;;0.60;0.35;;;7.70;99.90;;;;;;4994834;28;20049;-75
2023/03/05 10:25:15;;;;;;;2.00;0.30;;;7.70;99.90;;;;;;4973339;28;20705;-73
2023/03/05 10:27:52;;;;;;;1.48;0.43;;;7.70;99.90;;;;;;4975290;28;20038;-73
2023/03/05 10:30:21;;;;;;;1.13;0.32;;;7.90;99.90;;;;;;4989496;28;20030;-72
2023/03/05 10:32:54;;;;;;;0.90;0.13;;;8.00;99.90;;;;;;4985328;28;20054;-73
2023/03/05 10:35:35;;;;;;;2.28;0.28;;;8.00;99.90;;;;;;4989444;28;20038;-74
2023/03/05 10:38:21;;;;;;;1.70;0.20;;;8.10;99.90;;;;;;4987633;28;20117;-72
2023/03/05 10:40:53;;;;;;;2.30;0.30;;;8.20;99.90;;;;;;5000084;28;20045;-74
2023/03/05 10:43:36;;;;;;;2.97;0.30;;;8.10;99.90;;;;;;4995374;28;20154;-73
2023/03/05 10:46:03;;;;;;;2.67;0.50;;;8.10;99.90;;;;;;4983352;28;20380;-72
2023/03/05 10:48:45;;;;;;;2.15;1.05;;;7.90;99.90;;;;;;4989388;28;20137;-74
2023/03/05 10:51:14;;;;;;;3.22;0.50;;;7.80;99.90;;;;;;4974884;28;20030;-72
2023/03/05 10:53:56;;;;;;;0.85;0.40;;;7.70;99.90;;;;;;4988803;28;25763;-73
2023/03/05 10:56:24;;;;;;;3.10;0.70;;;7.60;99.90;;;;;;4988852;28;20049;-74
2023/03/05 10:58:51;;;;;;;1.17;0.93;;;7.60;99.90;;;;;;4988985;28;20038;-73
2023/03/05 11:01:17;;;;;;;3.10;0.63;;;7.60;99.90;;;;;;4989194;28;20137;-73
2023/03/05 11:03:56;;;;;;;1.05;0.50;;;7.60;99.90;;;;;;4974933;28;20185;-73
2023/03/05 11:06:35;;;;;;;2.03;0.45;;;7.50;99.90;;;;;;5002703;28;20057;-73
2023/03/05 11:09:28;;;;;;;3.70;0.60;;;7.60;99.90;;;;;;4988380;28;20034;-73
2023/03/05 11:12:07;;;;;;;0.70;0.40;;;7.60;99.90;;;;;;4987716;28;20038;-72
2023/03/05 11:14:35;;;;;;;1.20;0.25;;;7.50;99.90;;;;;;4980699;28;20038;-72
2023/03/05 11:17:03;;;;;;;1.65;0.20;;;7.50;99.90;;;;;;4990839;28;20030;-73
2023/03/05 11:19:33;;;;;;;0.57;0.35;;;7.40;99.90;;;;;;4991474;28;20046;-72
2023/03/05 11:22:15;;;;;;;0.80;0.30;;;7.50;99.90;;;;;;4990905;28;20482;-73
2023/03/05 11:24:40;;;;;;;1.40;0.25;;;7.50;99.90;;;;;;4987109;28;20042;-73
2023/03/05 11:27:30;;;;;;;1.45;0.32;;;7.70;99.90;;;;;;4991790;28;20038;-73
2023/03/05 11:29:56;;;;;;;1.88;0.13;;;7.70;99.90;;;;;;4984708;28;20058;-73
2023/03/05 11:32:25;;;;;;;1.05;0.00;;;7.90;99.90;;;;;;4984598;28;20062;-73
2023/03/05 11:34:52;;;;;;;0.68;0.10;;;8.00;99.90;;;;;;4989988;28;20078;-72
2023/03/05 11:37:29;;;;;;;0.95;0.38;;;8.00;99.90;;;;;;4987537;28;20822;-74
2023/03/05 11:40:17;;;;;;;4.13;0.40;;;8.10;99.90;;;;;;4989380;28;20450;-73
2023/03/05 11:42:43;;;;;;;2.55;0.30;;;8.20;99.90;;;;;;4982314;28;20034;-73
2023/03/05 11:45:18;;;;;;;3.95;0.52;;;8.20;99.90;;;;;;4986786;28;20023;-72
2023/03/05 11:48:12;;;;;;;2.83;0.30;;;8.30;99.90;;;;;;4987735;28;20161;-73
2023/03/05 11:50:40;;;;;;;5.90;0.20;;;8.40;99.90;;;;;;4964525;28;20027;-73
2023/03/05 11:53:17;;;;;;;1.65;0.20;;;8.60;99.90;;;;;;4967714;28;20503;-75
2023/03/05 11:55:51;;;;;;;6.90;0.22;;;8.60;99.90;;;;;;4963673;28;20031;-73
2023/03/05 11:58:32;;;;;;;0.98;0.10;;;8.60;99.90;;;;;;4963281;28;20038;-73
2023/03/05 12:00:59;;;;;;;2.15;0.20;;;8.70;99.90;;;;;;4966072;28;20439;-73
2023/03/05 12:03:33;;;;;;;4.35;0.20;;;8.70;99.90;;;;;;4967605;28;20488;-74
2023/03/05 12:06:14;;;;;;;0.55;0.10;;;8.80;99.90;;;;;;4968639;28;20034;-73
2023/03/05 12:08:41;;;;;;;;;;;8.90;99.90;;;;;;4997455;28;20035;-73
2023/03/05 12:11:27;;;;;;;2.38;0.25;;;9.00;99.90;;;;;;4965109;28;19921;-72
2023/03/05 12:14:22;;;;;;;2.95;0.30;;;9.00;99.90;;;;;;4966179;28;20038;-73
2023/03/05 12:16:54;;;;;;;1.65;0.40;;;9.00;99.90;;;;;;4995072;28;20043;-74
2023/03/05 12:19:31;;;;;;;1.77;0.15;;;8.90;99.90;;;;;;4999045;28;20042;-73
2023/03/05 12:21:58;;;;;;;1.05;0.40;;;8.90;99.90;;;;;;4965057;28;20547;-73
2023/03/05 12:24:23;;;;;;;4.80;0.88;;;8.90;99.90;;;;;;4967288;28;20038;-74
2023/03/05 12:26:51;;;;;;;3.30;0.25;;;8.90;99.90;;;;;;4967110;28;20085;-73
2023/03/05 12:29:32;;;;;;;2.20;0.38;;;9.00;99.90;;;;;;4997822;28;20053;-73
2023/03/05 12:32:21;;;;;;;2.10;0.40;;;8.80;99.90;;;;;;4966465;28;20525;-72
2023/03/05 12:34:59;;;;;;;3.22;0.30;;;8.70;99.90;;;;;;4982038;28;20073;-74
2023/03/05 12:37:24;;;;;;;1.08;0.38;;;8.60;99.90;;;;;;4966408;28;20046;-73
2023/03/05 12:39:56;;;;;;;0.98;0.43;;;8.60;99.90;;;;;;4968510;28;20404;-73
2023/03/05 12:42:28;;;;;;;7.80;0.70;;;8.50;99.90;;;;;;4968122;28;20038;-74
2023/03/05 12:45:13;;;;;;;2.40;0.30;;;8.30;99.90;;;;;;4996039;28;20113;-73
2023/03/05 12:47:39;;;;;;;2.92;0.38;;;8.10;99.90;;;;;;4979496;28;20039;-72
2023/03/05 12:50:25;;;;;;;0.85;0.30;;;8.20;99.90;;;;;;4964192;28;20088;-73
2023/03/05 12:52:52;;;;;;;1.05;0.47;;;8.00;99.90;;;;;;4964589;28;20039;-73
2023/03/05 12:55:21;;;;;;;1.15;0.20;;;8.00;99.90;;;;;;4969800;28;20027;-73
2023/03/05 12:57:59;;;;;;;1.23;0.38;;;8.00;99.90;;;;;;4970555;28;20078;-74
2023/03/05 13:00:32;;;;;;;3.13;0.40;;;7.90;99.90;;;;;;4969157;28;20042;-73
2023/03/05 13:03:01;;;;;;;4.15;0.57;;;7.90;99.90;;;;;;4967471;28;20027;-73
2023/03/05 13:05:33;;;;;;;1.45;0.55;;;7.90;99.90;;;;;;4967357;28;20145;-72
2023/03/05 13:08:31;;;;;;;3.47;1.27;;;8.00;99.90;;;;;;4969841;28;20074;-73